createdAt,value
2019-04-05T06:40:25.472Z,81.92
2019-04-05T06:42:55.871Z,82.48
2019-04-05T06:45:26.825Z,81.96
2019-04-05T06:47:59.368Z,82.24
2019-04-05T06:50:29.754Z,81.96
2019-04-05T06:53:00.115Z,82.28
2019-04-05T06:55:31.960Z,82.45
2019-04-05T06:58:05.067Z,82.50
2019-04-05T07:00:35.868Z,82.31
2019-04-05T07:03:06.345Z,81.84
2019-04-05T07:05:36.744Z,81.77
2019-04-05T07:08:11.136Z,81.40
2019-04-05T07:10:45.274Z,82.17
2019-04-05T07:13:15.972Z,81.91
2019-04-05T07:15:46.874Z,81.38
2019-04-05T07:18:17.494Z,82.15
2019-04-05T07:20:49.669Z,82.33
2019-04-05T07:23:20.918Z,81.72
2019-04-05T07:25:51.306Z,81.50
2019-04-05T07:28:21.686Z,81.04
2019-04-05T07:30:52.108Z,81.23
2019-04-05T07:33:22.508Z,82.56
2019-04-05T07:35:52.910Z,81.82
2019-04-05T07:38:25.129Z,81.08
2019-04-05T07:40:55.436Z,81.73
2019-04-05T07:43:27.169Z,81.46
2019-04-05T07:46:00.486Z,81.64
2019-04-05T07:48:30.764Z,81.45
2019-04-05T07:51:01.074Z,80.73
2019-04-05T07:53:31.771Z,81.04
2019-04-05T07:56:02.871Z,81.32
2019-04-05T07:58:33.145Z,81.15
2019-04-05T08:01:05.547Z,80.84
2019-04-05T08:03:35.913Z,81.11
2019-04-05T08:06:07.615Z,81.37
2019-04-05T08:09:02.070Z,82.14
2019-04-05T08:11:31.910Z,81.07
2019-04-05T08:14:04.110Z,81.49
2019-04-05T08:16:34.954Z,81.62
2019-04-05T08:19:05.400Z,81.51
2019-04-05T08:21:35.691Z,81.45
2019-04-05T08:24:06.174Z,80.47
2019-04-05T08:26:36.771Z,80.27
2019-04-05T08:29:07.270Z,80.91
2019-04-05T08:31:37.484Z,80.85
2019-04-05T08:34:07.786Z,80.66
2019-04-05T08:36:38.099Z,81.55
2019-04-05T08:39:09.951Z,81.08
2019-04-05T08:41:40.390Z,81.20
2019-04-05T08:44:11.106Z,81.19
2019-04-05T08:46:41.437Z,80.86
2019-04-05T08:49:12.003Z,81.20
2019-04-05T08:51:42.465Z,81.00
2019-04-05T08:54:12.816Z,81.40
2019-04-05T08:56:43.212Z,80.01
2019-04-05T08:59:13.635Z,80.13
2019-04-05T09:01:44.008Z,80.43
2019-04-05T09:04:14.334Z,80.26
2019-04-05T09:06:44.758Z,80.63
2019-04-05T09:09:15.075Z,80.44
2019-04-05T09:11:45.334Z,79.49
2019-04-05T09:14:15.814Z,79.44
2019-04-05T09:16:46.107Z,79.96
2019-04-05T09:19:23.374Z,80.16
2019-04-05T09:21:48.679Z,79.49
2019-04-05T09:24:18.972Z,79.82
2019-04-05T09:26:49.321Z,80.56
2019-04-05T09:29:19.858Z,80.45
2019-04-05T09:31:50.142Z,80.25
2019-04-05T09:34:23.119Z,80.17
2019-04-05T09:36:52.521Z,80.14
2019-04-05T09:39:23.133Z,80.68
2019-04-05T09:41:53.457Z,80.33
2019-04-05T09:44:24.027Z,80.00
2019-04-05T09:46:54.447Z,80.29
2019-04-05T09:49:36.160Z,79.35
2019-04-05T09:51:56.918Z,79.71
2019-04-05T09:54:27.664Z,78.89
2019-04-05T09:56:57.950Z,79.67
2019-04-05T09:59:28.348Z,78.87
2019-04-05T10:01:58.714Z,79.09
2019-04-05T10:04:31.207Z,79.95
2019-04-05T10:07:01.103Z,79.47
2019-04-05T10:09:31.441Z,79.02
2019-04-05T10:12:01.917Z,78.98
2019-04-05T10:14:32.441Z,79.40
2019-04-05T10:17:02.728Z,79.10
2019-04-05T10:19:33.086Z,78.78
2019-04-05T10:22:04.138Z,79.80
2019-04-05T10:24:34.523Z,78.97
2019-04-05T10:27:04.926Z,79.40
2019-04-05T10:29:35.236Z,79.16
2019-04-05T10:32:05.902Z,79.25
2019-04-05T10:34:36.645Z,79.62
2019-04-05T10:37:07.012Z,79.78
2019-04-05T10:39:37.658Z,79.09
2019-04-05T10:42:30.332Z,79.29
2019-04-05T10:45:00.870Z,79.95
2019-04-05T10:47:31.808Z,79.66
2019-04-05T10:50:03.708Z,80.17
2019-04-05T10:52:34.186Z,79.87
2019-04-05T10:55:04.567Z,79.17
2019-04-05T10:57:34.867Z,79.24
2019-04-05T11:00:07.640Z,79.02
2019-04-05T11:02:37.940Z,78.68
2019-04-05T11:05:08.942Z,78.64
2019-04-05T11:07:39.251Z,79.26
2019-04-05T11:10:10.914Z,78.54
2019-04-05T11:12:41.288Z,78.96
2019-04-05T11:15:15.007Z,78.94
2019-04-05T11:17:44.882Z,79.09
2019-04-05T11:20:24.089Z,79.10
2019-04-05T11:22:49.983Z,79.07
2019-04-05T11:25:20.962Z,78.89
2019-04-05T11:27:51.468Z,78.40
2019-04-05T11:30:42.271Z,78.98
2019-04-05T11:33:13.115Z,77.93
2019-04-05T11:35:43.827Z,79.05
2019-04-05T11:38:16.411Z,79.31
2019-04-05T11:40:47.451Z,78.66
2019-04-05T11:43:18.335Z,79.38
2019-04-05T11:45:50.844Z,79.90
2019-04-05T11:48:20.892Z,79.88
2019-04-05T11:50:51.141Z,79.41
2019-04-05T11:53:22.172Z,79.75
2019-04-05T11:55:52.505Z,79.28
2019-04-05T11:58:22.909Z,79.41
2019-04-05T12:00:56.242Z,79.19
2019-04-05T12:03:26.918Z,78.63
2019-04-05T12:05:57.345Z,78.29
2019-04-05T12:08:27.700Z,77.77
2019-04-05T12:10:58.029Z,78.44
2019-04-05T12:13:28.310Z,78.54
2019-04-05T12:15:58.679Z,78.04
2019-04-05T12:18:29.462Z,78.59
2019-04-05T12:21:04.972Z,78.57
2019-04-05T12:23:36.938Z,78.55
2019-04-05T12:26:09.112Z,78.43
2019-04-05T12:28:41.340Z,78.45
2019-04-05T12:31:11.671Z,78.75
2019-04-05T12:33:42.305Z,78.51
2019-04-05T12:36:12.888Z,78.89
2019-04-05T12:38:43.354Z,79.22
2019-04-05T12:41:13.689Z,79.02
2019-04-05T12:43:44.740Z,78.42
2019-04-05T12:46:16.248Z,78.95
2019-04-05T12:48:46.676Z,79.03
2019-04-05T12:51:17.512Z,79.48
2019-04-05T12:53:47.822Z,79.10
2019-04-05T12:56:18.287Z,78.75
2019-04-05T12:58:48.708Z,78.60
2019-04-05T13:01:19.414Z,79.24
2019-04-05T13:03:51.379Z,78.86
2019-04-05T13:06:22.519Z,79.09
2019-04-05T13:08:53.909Z,79.50
2019-04-05T13:11:26.648Z,79.63
2019-04-05T13:13:58.720Z,79.25
2019-04-05T13:16:29.128Z,78.49
2019-04-05T13:19:00.980Z,78.63
2019-04-05T13:21:33.042Z,78.99
2019-04-05T13:24:04.459Z,78.51
2019-04-05T13:26:36.860Z,79.15
2019-04-05T13:29:07.459Z,78.81
2019-04-05T13:31:37.734Z,78.89
2019-04-05T13:34:08.371Z,78.92
2019-04-05T13:36:38.678Z,78.50
2019-04-05T13:39:09.725Z,78.99
2019-04-05T13:41:40.050Z,78.76
2019-04-05T13:44:10.478Z,78.52
2019-04-05T13:46:42.759Z,78.81
2019-04-05T13:49:13.271Z,77.96
2019-04-05T13:51:43.571Z,78.54
2019-04-05T13:54:14.181Z,78.01
2019-04-05T13:56:44.563Z,77.96
2019-04-05T13:59:15.103Z,77.90
2019-04-05T14:01:45.491Z,77.78
2019-04-05T14:04:17.114Z,77.11
2019-04-05T14:06:47.641Z,76.89
2019-04-05T14:09:18.064Z,77.12
2019-04-05T14:11:48.377Z,76.84
2019-04-05T14:14:18.748Z,76.50
2019-04-05T14:16:49.171Z,76.55
2019-04-05T14:19:19.771Z,77.22
2019-04-05T14:21:52.695Z,76.83
2019-04-05T14:24:23.420Z,77.10
2019-04-05T14:26:54.380Z,77.40
2019-04-05T14:29:24.744Z,77.92
2019-04-05T14:31:55.123Z,77.58
2019-04-05T14:34:25.412Z,77.70
2019-04-05T14:36:55.723Z,77.36
2019-04-05T14:39:26.111Z,77.93
2019-04-05T14:42:08.789Z,77.62
2019-04-05T14:44:28.938Z,77.71
2019-04-05T14:46:59.624Z,78.38
2019-04-05T14:49:31.211Z,78.51
2019-04-05T14:52:01.930Z,79.06
2019-04-05T14:54:33.063Z,79.54
2019-04-05T14:57:05.666Z,79.55
2019-04-05T14:59:36.195Z,79.76
2019-04-05T15:02:06.992Z,79.69
2019-04-05T15:04:37.433Z,80.15
2019-04-05T15:07:07.726Z,79.53
2019-04-05T15:09:38.327Z,79.71
2019-04-05T15:12:08.747Z,80.00
2019-04-05T15:14:39.005Z,79.39
2019-04-05T15:17:09.304Z,79.29
2019-04-05T15:19:39.616Z,80.03
2019-04-05T15:22:11.721Z,79.54
2019-04-05T15:24:42.259Z,80.23
2019-04-05T15:27:12.637Z,79.85
2019-04-05T15:29:42.918Z,79.38
2019-04-05T15:32:13.366Z,78.96
2019-04-05T15:34:43.667Z,79.34
2019-04-05T15:37:16.011Z,79.49
2019-04-05T15:39:49.094Z,79.34
2019-04-05T15:42:19.437Z,79.28
2019-04-05T15:44:49.736Z,79.16
2019-04-05T15:47:23.258Z,79.30
2019-04-05T15:49:52.895Z,79.48
2019-04-05T15:52:23.328Z,79.92
2019-04-05T15:54:53.678Z,80.02
2019-04-05T15:57:25.531Z,79.13
2019-04-05T15:59:58.424Z,79.87
2019-04-05T16:02:28.832Z,79.95
2019-04-05T16:04:59.201Z,80.31
2019-04-05T16:07:31.380Z,80.47
2019-04-05T16:10:01.688Z,80.24
2019-04-05T16:12:31.982Z,80.42
2019-04-05T16:15:02.282Z,80.14
2019-04-05T16:17:32.805Z,80.13
2019-04-05T16:20:03.399Z,80.27
2019-04-05T16:22:35.847Z,80.59
2019-04-05T16:25:06.391Z,81.04
2019-04-05T16:27:36.673Z,80.75
2019-04-05T16:30:08.274Z,81.02
2019-04-05T16:32:38.599Z,80.71
2019-04-05T16:35:08.992Z,81.04
2019-04-05T16:37:39.532Z,81.24
2019-04-05T16:40:09.987Z,81.58
2019-04-05T16:42:40.348Z,81.89
2019-04-05T16:45:11.765Z,82.52
2019-04-05T16:47:43.231Z,83.00
2019-04-05T16:50:16.363Z,82.72
2019-04-05T16:52:46.751Z,82.84
2019-04-05T16:55:17.471Z,83.35
2019-04-05T16:57:47.775Z,83.72
2019-04-05T17:00:18.533Z,84.04
2019-04-05T17:02:48.950Z,84.35
2019-04-05T17:05:19.204Z,84.73
2019-04-05T17:07:49.814Z,84.75
2019-04-05T17:10:20.199Z,85.10
2019-04-05T17:12:50.524Z,85.59
2019-04-05T17:15:20.890Z,86.43
2019-04-05T17:17:51.267Z,87.03
2019-04-05T17:20:21.533Z,87.08
2019-04-05T17:22:58.107Z,87.62
2019-04-05T17:25:23.937Z,87.62
2019-04-05T17:27:54.332Z,88.38
2019-04-05T17:30:24.591Z,88.67
2019-04-05T17:32:54.891Z,89.31
2019-04-05T17:35:25.235Z,89.86
2019-04-05T17:37:55.877Z,90.43
2019-04-05T17:40:26.168Z,90.50
2019-04-05T17:42:56.902Z,90.89
2019-04-05T17:45:27.253Z,90.92
2019-04-05T17:47:57.541Z,91.41
2019-04-05T17:50:33.381Z,91.40
2019-04-05T17:53:12.102Z,91.46
2019-04-05T17:55:36.135Z,91.27
2019-04-05T17:58:07.426Z,91.22
2019-04-05T18:00:38.129Z,91.36
2019-04-05T18:03:08.815Z,91.53
2019-04-05T18:05:40.707Z,91.52
2019-04-05T18:08:11.026Z,91.66
2019-04-05T18:10:41.631Z,91.66
2019-04-05T18:13:11.945Z,91.77
2019-04-05T18:15:52.225Z,91.60
2019-04-05T18:18:14.827Z,91.66
2019-04-05T18:20:45.193Z,91.79
2019-04-05T18:23:24.839Z,91.79
2019-04-05T18:25:47.968Z,91.82
2019-04-05T18:28:18.274Z,92.12
2019-04-05T18:30:48.992Z,92.14
2019-04-05T18:33:19.362Z,92.39
2019-04-05T18:35:49.737Z,92.14
2019-04-05T18:38:19.997Z,92.26
2019-04-05T18:40:50.691Z,92.37
2019-04-05T18:43:21.029Z,92.41
2019-04-05T18:45:51.344Z,92.37
2019-04-05T18:48:21.778Z,92.36
2019-04-05T18:50:52.110Z,92.35
2019-04-05T18:53:22.406Z,92.52
2019-04-05T18:55:53.753Z,92.72
2019-04-05T18:58:24.009Z,92.49
2019-04-05T19:00:54.759Z,92.50
2019-04-05T19:03:25.206Z,92.39
2019-04-05T19:05:55.580Z,92.36
2019-04-05T19:08:38.673Z,92.19
2019-04-05T19:10:58.257Z,92.25
2019-04-05T19:13:28.529Z,92.15
2019-04-05T19:15:59.497Z,91.96
2019-04-05T19:18:30.505Z,91.81
2019-04-05T19:21:01.026Z,92.10
2019-04-05T19:23:31.350Z,92.08
2019-04-05T19:26:01.962Z,92.22
2019-04-05T19:28:32.271Z,92.25
2019-04-05T19:48:46.967Z,92.16
2019-04-05T19:51:17.279Z,92.24
2019-04-05T19:53:47.881Z,92.24
2019-04-05T19:56:18.388Z,92.33
2019-04-05T19:58:48.761Z,92.44
2019-04-05T20:01:19.165Z,92.62
2019-04-05T20:03:49.410Z,92.36
2019-04-05T20:06:20.805Z,92.38
2019-04-05T20:08:51.513Z,92.37
2019-04-05T20:11:22.407Z,92.10
2019-04-05T20:13:52.694Z,92.18
2019-04-05T20:16:23.015Z,92.23
2019-04-05T20:18:53.621Z,92.18
2019-04-05T20:21:23.889Z,92.23
2019-04-05T20:23:54.139Z,91.82
2019-04-05T20:26:24.509Z,91.82
2019-04-05T20:28:54.833Z,91.90
2019-04-05T20:31:25.107Z,92.12
2019-04-05T20:33:55.407Z,91.90
2019-04-05T20:36:25.687Z,91.94
2019-04-05T20:38:56.143Z,91.88
2019-04-05T20:41:26.526Z,92.11
2019-04-05T20:43:56.887Z,92.25
2019-04-05T20:46:27.308Z,92.33
2019-04-05T20:48:57.578Z,92.43
2019-04-05T20:51:27.893Z,92.37
2019-04-05T20:53:58.206Z,92.25
2019-04-05T20:56:28.545Z,92.55
2019-04-05T20:58:58.852Z,92.67
2019-04-05T21:01:29.213Z,92.92
2019-04-05T21:03:59.507Z,93.04
2019-04-05T21:06:29.880Z,93.16
2019-04-05T21:09:00.428Z,93.19
2019-04-05T21:11:30.967Z,92.92
2019-04-05T21:14:01.767Z,92.55
2019-04-05T21:16:32.110Z,91.68
2019-04-05T21:19:04.935Z,91.88
2019-04-05T21:21:34.516Z,91.99
2019-04-05T21:24:04.959Z,91.79
2019-04-05T21:26:35.221Z,91.87
2019-04-05T21:29:05.632Z,91.68
2019-04-05T21:31:36.063Z,91.86
2019-04-05T21:34:06.627Z,91.72
2019-04-05T21:36:36.927Z,91.92
2019-04-05T21:39:08.888Z,91.95
2019-04-05T21:41:39.212Z,91.93
2019-04-05T21:44:09.528Z,92.06
2019-04-05T21:46:39.897Z,92.10
2019-04-05T21:49:10.553Z,91.77
2019-04-05T21:51:40.918Z,91.98
2019-04-05T21:54:11.544Z,92.06
2019-04-05T21:56:41.814Z,91.99
2019-04-05T21:59:12.525Z,92.14
2019-04-05T22:01:42.875Z,92.08
2019-04-05T22:04:13.556Z,91.94
2019-04-05T22:06:43.885Z,91.75
2019-04-05T22:09:14.370Z,91.92
2019-04-05T22:11:44.639Z,91.83
2019-04-05T22:14:14.924Z,91.90
2019-04-05T22:16:45.644Z,91.88
2019-04-05T22:19:16.017Z,92.03
2019-04-05T22:21:46.414Z,91.99
2019-04-05T22:24:16.770Z,92.05
2019-04-05T22:26:47.084Z,91.94
2019-04-05T22:29:17.326Z,91.93
2019-04-05T22:31:47.673Z,92.09
2019-04-05T22:34:17.922Z,92.26
2019-04-05T22:36:48.614Z,92.25
2019-04-05T22:39:18.849Z,92.33
2019-04-05T22:41:49.172Z,92.23
2019-04-05T22:44:19.488Z,92.21
2019-04-05T22:46:49.838Z,92.43
2019-04-05T22:49:20.105Z,92.61
2019-04-05T22:51:50.427Z,92.37
2019-04-05T22:54:20.687Z,92.35
2019-04-05T22:56:50.986Z,92.42
2019-04-05T22:59:21.844Z,92.48
2019-04-05T23:01:52.136Z,92.67
2019-04-05T23:04:22.524Z,92.52
2019-04-05T23:06:52.817Z,92.68
2019-04-05T23:09:23.149Z,92.80
2019-04-05T23:11:53.427Z,92.68
2019-04-05T23:14:23.950Z,92.56
2019-04-05T23:16:54.494Z,92.54
2019-04-05T23:19:24.996Z,92.49
2019-04-05T23:21:55.351Z,92.38
2019-04-05T23:24:25.721Z,92.33
2019-04-05T23:26:56.098Z,92.19
2019-04-05T23:29:26.391Z,92.12
2019-04-05T23:31:56.801Z,92.21
2019-04-05T23:34:27.092Z,92.15
2019-04-05T23:36:57.744Z,92.00
2019-04-05T23:39:28.360Z,91.74
2019-04-05T23:41:59.320Z,91.64
2019-04-05T23:44:29.718Z,91.78
2019-04-05T23:47:00.078Z,91.92
2019-04-05T23:49:30.357Z,91.86
2019-04-05T23:52:01.047Z,91.89
2019-04-05T23:54:31.362Z,91.96
2019-04-05T23:57:01.733Z,91.90
2019-04-05T23:59:32.046Z,91.89
